South Mason Valley, Nevada Weather observations

Data are for 10 minute period ending at time listed.
 Day   Time   Solar   Ave.   Ave.  Ave.  Vector  Max.   Baro.   Total    
  of    of     Rad.   Air    Rel.  Wind   Wind   Wind  Press.  Precip.   
Year   Day            Temp.  Hum.  Speed  Dir.   Gust                    
2015   (PST)  Kw/m2    F      %     mph   deg.    mph    mb.     in.     
-------------------------------------------------------------------------
  29   12:50   0.55   51.1    56    3.0   334     6.6   884.7    0.00 
  29   13:00   0.54   50.6    57    2.3    40     6.8   884.5    0.00 
  29   13:10   0.53   51.0    57    2.2    36     5.6   884.3    0.00 
  29   13:20   0.51   51.6    56    3.0   350     7.1   884.2    0.00 
  29   13:30   0.47   51.4    55    2.1    22     6.4   884.0    0.00 
  29   13:40   0.39   51.6    56    1.3    66     7.3   883.9    0.00 
  29   13:50   0.44   51.5    55    3.8   347     7.5   883.8    0.00 
  29   14:00   0.36   51.7    55    4.3    53     9.3   883.7    0.00 
  29   14:10   0.35   51.1    57    5.5    49     8.6   883.6    0.00 
  29   14:20   0.30   50.9    57    5.2    40     9.2   883.5    0.00 
  29   14:30   0.23   50.8    58    4.6    40     7.1   883.4    0.00 
  29   14:40   0.24   50.8    58    4.5    38     7.5   883.4    0.00 
  29   14:50   0.29   51.2    57    4.3    52     6.9   883.4    0.00 
  29   15:00   0.34   51.8    55    3.8    58     6.0   883.3    0.00 
  29   15:10   0.34   52.2    54    3.4    35     6.9   883.2    0.00 
  29   15:20   0.31   52.4    53    3.9    53     6.6   883.2    0.00 
  29   15:30   0.27   52.2    55    4.6    48     8.3   883.1    0.00 
  29   15:40   0.24   52.0    56    4.8    48     7.7   883.1    0.00 
  29   15:50   0.21   52.2    56    3.5    29     7.8   883.1    0.00 
  29   16:00   0.18   52.0    56    4.5    11     7.1   883.0    0.00 
  29   16:10   0.15   51.8    56    4.9    10     7.5   883.0    0.00 
  29   16:20   0.12   51.5    57    4.1    26     6.6   883.0    0.00 
  29   16:30   0.10   51.4    58    4.2    36     6.0   883.0    0.00 
  29   16:40   0.08   51.0    59    3.4    50     5.8   883.0    0.00 
  29   16:50   0.05   50.3    61    3.0    46     4.9   882.9    0.00 
  29   17:00   0.01   48.7    63    3.6    45     5.4   883.0    0.00 
  29   17:10   0.01   47.4    65    2.7    43     4.5   883.1    0.00 
  29   17:20   0.01   46.6    66    3.2    37     4.6   883.3    0.00 
  29   17:30   0.00   45.9    68    1.9     9     2.8   883.4    0.00 
  29   17:40   0.00   44.9    71    2.1    14     3.0   883.5    0.00 
  29   17:50   0.00   44.1    74    2.3    10     3.1   883.6    0.00 
  29   18:00   0.00   43.3    76    3.0    14     3.9   883.7    0.00 
  29   18:10   0.00   43.0    77    2.6    19     3.1   883.8    0.00 
  29   18:20   0.00   42.6    78    2.3    28     2.9   883.8    0.00 
  29   18:30   0.00   42.6    79    1.9    40     3.1   883.9    0.00 
  29   18:40   0.00   42.8    79    2.0    26     2.9   883.9    0.00 
  29   18:50   0.00   42.3    80    2.3    24     2.9   884.0    0.00 
  29   19:00   0.00   42.0    81    2.4   356     2.9   884.0    0.00 
  29   19:10   0.00   41.7    82    2.4   342     3.0   884.0    0.00 
  29   19:20   0.00   41.9    84    1.3   348     1.8   884.0    0.00 
  29   19:30   0.00   42.2    83    0.6   350     1.3   884.0    0.00 
  29   19:40   0.00   42.0    83    0.0     0     0.0   884.0    0.00 
  29   19:50   0.00   41.8    83    0.0     0     0.0   883.9    0.00 
  29   20:00   0.00   41.9    84    0.0   325     0.6   883.9    0.00 
  29   20:10   0.00   41.5    84    3.6   283     5.4   883.9    0.00 
  29   20:20   0.00   40.7    86    2.6   285     5.1   884.0    0.00 
  29   20:30   0.00   40.4    86    0.0     0     0.0   883.9    0.00 
  29   20:40   0.00   40.1    86    0.3   294     1.0   883.9    0.00 
  29   20:50   0.00   40.2    88    1.5   280     2.1   883.9    0.00 
  29   21:00   0.00   40.5    87    2.4   283     2.7   883.9    0.00 
  29   21:10   0.00   39.7    88    2.6   298     2.9   883.9    0.00 
  29   21:20   0.00   39.5    89    2.2   315     3.2   883.9    0.00 
  29   21:30   0.00   39.0    89    3.6   292     6.4   883.9    0.00 
  29   21:40   0.00   38.6    90    2.6   292     3.9   883.9    0.00 
  29   21:50   0.00   37.6    89    1.1   302     2.3   883.8    0.00 
  29   22:00   0.00   37.7    90    1.6   307     2.5   883.7    0.00 
  29   22:10   0.00   37.8    90    2.3   304     3.1   883.7    0.00 
  29   22:20   0.00   37.0    90    2.4   291     3.1   883.7    0.00 
  29   22:30   0.00   36.8    91    1.4   285     1.8   883.7    0.00 
  29   22:40   0.00   37.0    91    1.0   252     2.0   883.9    0.00 
  29   22:50   0.00   37.0    91    1.3   242     1.7   883.8    0.00 
  29   23:00   0.00   37.9    91    1.2   270     1.7   883.8    0.00 
  29   23:10   0.00   37.8    91    1.3   313     1.7   883.8    0.00 
  29   23:20   0.00   37.9    90    0.2   307     0.9   883.7    0.00 
  29   23:30   0.00   38.1    91    0.0     0     0.0   883.7    0.00 
  29   23:40   0.00   38.1    90    0.0     0     0.0   883.6    0.00 
  29   23:50   0.00   37.9    90    0.1   214     1.2   883.6    0.00 
  30    0:00   0.00   37.9    90    0.0     0     0.0   883.6    0.00 
  30    0:10   0.00   38.0    90    0.0     0     0.0   883.6    0.00 
  30    0:20   0.00   38.4    90    0.0     0     0.0   883.5    0.00 
  30    0:30   0.00   38.7    90    0.7   324     1.5   883.4    0.00 
  30    0:40   0.00   38.9    90    0.8   316     1.8   883.4    0.00 
  30    0:50   0.00   38.9    90    1.7   297     2.1   883.3    0.00 
  30    1:00   0.00   38.8    90    0.6   276     1.5   883.3    0.00 
  30    1:10   0.00   38.8    90    1.9   303     2.9   883.3    0.00 
  30    1:20   0.00   38.7    90    2.7   291     3.2   883.2    0.00 
  30    1:30   0.00   38.7    90    3.0   292     3.7   883.1    0.00 
  30    1:40   0.00   38.7    90    1.9   291     2.5   883.1    0.00 
  30    1:50   0.00   39.0    90    2.3   287     3.1   883.1    0.00 
  30    2:00   0.00   39.2    90    2.3   286     2.8   883.1    0.00 
  30    2:10   0.00   39.2    89    3.3   295     4.2   883.1    0.00 
  30    2:20   0.00   39.2    89    3.4   305     4.5   883.0    0.00 
  30    2:30   0.00   39.7    88    2.5   316     3.4   882.9    0.00 
  30    2:40   0.00   39.7    88    2.6   329     3.7   882.9    0.00 
  30    2:50   0.00   39.9    87    2.7   341     4.3   882.8    0.00 
  30    3:00   0.00   39.8    87    2.0   335     2.9   882.7    0.00 
  30    3:10   0.00   39.6    87    2.9   352     4.1   882.7    0.00 
  30    3:20   0.00   39.7    87    3.6     6     4.7   882.7    0.00 
  30    3:30   0.00   39.7    87    4.0   352     4.9   882.6    0.00 
  30    3:40   0.00   39.8    87    3.6   350     6.3   882.5    0.00 
  30    3:50   0.00   40.1    86    4.2   349     6.9   882.4    0.00 
  30    4:00   0.00   40.3    85    4.1   352     5.1   882.4    0.00 
  30    4:10   0.00   40.2    84    3.3   356     4.7   882.4    0.00 
  30    4:20   0.00   40.1    84    3.4     6     4.7   882.3    0.00 
  30    4:30   0.00   40.0    84    2.9    12     5.6   882.3    0.00 
  30    4:40   0.00   40.2    82    5.1     1     6.9   882.3    0.00 
  30    4:50   0.00   40.1    82    3.9   348     6.4   882.3    0.00 
  30    5:00   0.00   39.9    82    3.3   336     6.3   882.4    0.00 
  30    5:10   0.00   40.0    82    4.7   329     6.9   882.3    0.00 
  30    5:20   0.00   39.9    82    6.3   342     8.8   882.3    0.00 
  30    5:30   0.00   39.9    82    5.4   347     7.9   882.3    0.00 
  30    5:40   0.00   39.8    81    5.2   345     7.1   882.3    0.00 
  30    5:50   0.00   39.9    80    5.2   351     8.3   882.3    0.00 
  30    6:00   0.00   39.8    81    4.8   352     6.9   882.3    0.00 
  30    6:10   0.00   39.6    81    4.5   357     6.6   882.3    0.00 
  30    6:20   0.00   39.3    82    4.5     2     6.4   882.3    0.00 
  30    6:30   0.00   39.2    82    5.0     5     7.2   882.3    0.00 
  30    6:40   0.00   39.0    83    4.8   358     7.9   882.3    0.00 
  30    6:50   0.00   38.6    84    4.8   352     7.4   882.3    0.00 
  30    7:00   0.00   38.5    84    5.0   355     7.5   882.3    0.00 
  30    7:10   0.00   38.2    85    4.0    11     6.9   882.3    0.00 
  30    7:20   0.00   38.4    84    5.3    14     9.3   882.3    0.00 
  30    7:30   0.01   38.3    83    5.5    15     8.0   882.3    0.00 
  30    7:40   0.01   38.3    82    5.5    15     8.4   882.4    0.00 
  30    7:50   0.02   38.4    82    6.0    13     8.9   882.4    0.00 
  30    8:00   0.03   38.4    81    7.1    22    11.5   882.4    0.00 
  30    8:10   0.03   38.2    82    6.1    16     8.6   882.5    0.00 
  30    8:20   0.06   38.1    82    6.2    16     9.2   882.6    0.00 
  30    8:30   0.09   38.2    82    6.9    12    10.3   882.6    0.00 
  30    8:40   0.12   38.6    81    6.6   354     8.9   882.6    0.00 
  30    8:50   0.10   38.9    79    7.2   357    12.3   882.6    0.00 
  30    9:00   0.23   39.0    78    9.3     8    12.9   882.7    0.00 
  30    9:10   0.28   39.5    76    9.3     7    13.4   882.7    0.00 
  30    9:20   0.34   40.4    75    9.6     9    13.7   882.7    0.00 
  30    9:30   0.36   40.6    74    8.4   358    12.1   882.7    0.00 
  30    9:40   0.38   41.4    72    8.6   356    12.6   882.7    0.00 
  30    9:50   0.40   42.1    70    7.5   350    10.4   882.7    0.00 
  30   10:00   0.36   42.2    69    8.5   356    12.0   882.7    0.00 
  30   10:10   0.35   42.6    69    7.5     8    11.6   882.7    0.00 
  30   10:20   0.28   42.7    68    8.0    10    11.6   882.8    0.00 
  30   10:30   0.23   42.3    68    7.7    13    10.8   882.7    0.00 
  30   10:40   0.40   43.0    67    8.0    15    11.0   882.6    0.00 
  30   10:50   0.52   44.1    66    8.0    16    12.9   882.6    0.00 
  30   11:00   0.52   44.8    64    7.7    25    13.2   882.5    0.00 
  30   11:10   0.53   45.4    63    6.6    24    11.4   882.3    0.00 
  30   11:20   0.54   45.8    62    6.7   358    11.7   882.1    0.00 
  30   11:30   0.56   46.0    62    6.5    14    11.1   882.0    0.00 
  30   11:40   0.56   46.6    61    5.6    11     9.9   881.8    0.00 
  30   11:50   0.54   47.1    59    5.7   339     9.9   881.6    0.00 
  30   12:00   0.55   47.7    58    6.5   352    11.8   881.4    0.00 
  30   12:10   0.57   48.0    56    6.0    16     9.6   881.2    0.00 
  30   12:20   0.56   48.0    56    6.7   346    10.9   881.0    0.00 
  30   12:30   0.54   48.3    56    8.1   351    13.0   880.8    0.00 
  30   12:40   0.55   48.6    56    7.1   351    14.5   880.7    0.00 

Return to south Mason Valley graphs page.


Western Regional Climate Center,wrcc@dri.edu